Aviation Digital Data Service (ADDS)

Output produced by TAFs form (1219 UTC 25 June 2017)
found at http://aviationweather.gov/adds/tafs/
 
KABQ 251131Z 2512/2612 13009KT P6SM FEW050 
     FM251900 18011KT P6SM FEW090 
     FM252300 20010KT P6SM VCSH SCT100 SCT200 
     FM260300 12012G20KT P6SM SCT100 SCT200